Backnang-Heiningen Airport EDSH

Flugplatz Daten

Name: Backnang-Heiningen Airport

Ident: EDSH

Lat: 48,91972351

Long: 9,455278397

Platzhöhe: 965 ft

IataCode:

City: Backnang

Metar

2016/04/13 17:50
ENHV 131750Z 31015KT 9999 VCSH FEW016 SCT025TCU BKN043 M01/M07 Q1011 RMK REDSHSN

Taf

Gewünschte Webcam nicht vorhanden? Dann fügen Sie eine hinzu. Sie wird dann so schnell wie möglich freigeschaltet
Url: Title: